Time;durP1;ratioP1;P1;durP2;ratioP2;P2;SDS_P1;SDS_P2;PMS_P1;PMS_P2;Temp;Humidity;BMP_temperature;BMP_pressure;BME280_temperature;BME280_humidity;BME280_pressure;Samples;Min_cycle;Max_cycle;Signal;HPM_P1;HPM_P2
2022/12/02 00:00:51;;;;;;;36.70;18.87;;;;;;;;;;4943577;28;20258;-74
2022/12/02 00:03:20;;;;;;;36.27;17.40;;;;;;;;;;4952518;28;20773;-75
2022/12/02 00:05:49;;;;;;;36.37;17.57;;;;;;;;;;4934415;28;20226;-76
2022/12/02 00:08:25;;;;;;;37.93;19.03;;;;;;;;;;4937345;28;20219;-75
2022/12/02 00:10:54;;;;;;;30.00;17.43;;;;;;;;;;4953080;28;20223;-74
2022/12/02 00:13:23;;;;;;;29.97;17.60;;;;;;;;;;4905869;28;20223;-75
2022/12/02 00:15:52;;;;;;;39.60;17.53;;;;;;;;;;4953421;28;20234;-76
2022/12/02 00:18:20;;;;;;;36.13;18.70;;;;;;;;;;4940456;28;20321;-76
2022/12/02 00:20:46;;;;;;;35.30;18.20;;;;;;;;;;4938226;28;20773;-76
2022/12/02 00:23:12;;;;;;;42.57;19.33;;;;;;;;;;4936226;28;20223;-74
2022/12/02 00:25:44;;;;;;;35.77;18.80;;;;;;;;;;4929246;28;20227;-74
2022/12/02 00:28:09;;;;;;;34.53;19.27;;;;;;;;;;4935311;28;20247;-74
2022/12/02 00:30:36;;;;;;;37.30;19.53;;;;;;;;;;4937964;28;20226;-76
2022/12/02 00:33:01;;;;;;;39.90;19.80;;;;;;;;;;4934545;28;20231;-75
2022/12/02 00:35:29;;;;;;;38.37;19.90;;;;;;;;;;4921963;29;20257;-75
2022/12/02 00:37:57;;;;;;;35.63;17.57;;;;;;;;;;4905616;29;20231;-75
2022/12/02 00:40:25;;;;;;;38.27;18.63;;;;;;;;;;4949089;28;21080;-75
2022/12/02 00:42:51;;;;;;;39.70;18.00;;;;;;;;;;4918059;29;20223;-74
2022/12/02 00:48:06;;;;;;;30.70;18.03;;;;;;;;;;4950457;28;20250;-75
2022/12/02 00:50:33;;;;;;;33.17;19.37;;;;;;;;;;4953572;28;20768;-74
2022/12/02 00:53:01;;;;;;;35.73;18.83;;;;;;;;;;4904773;29;20326;-74
2022/12/02 00:55:29;;;;;;;40.60;18.77;;;;;;;;;;4938051;29;20651;-76
2022/12/02 00:57:57;;;;;;;31.67;17.33;;;;;;;;;;4934531;28;20704;-75
2022/12/02 01:00:25;;;;;;;34.73;17.10;;;;;;;;;;4937199;28;20234;-75
2022/12/02 01:02:51;;;;;;;33.17;18.10;;;;;;;;;;4920466;29;20224;-75
2022/12/02 01:05:17;;;;;;;31.10;16.87;;;;;;;;;;4938034;28;20234;-74
2022/12/02 01:07:42;;;;;;;32.17;17.30;;;;;;;;;;4920217;28;20235;-74
2022/12/02 01:10:08;;;;;;;28.07;15.87;;;;;;;;;;4924491;28;20277;-74
2022/12/02 01:12:34;;;;;;;35.03;17.20;;;;;;;;;;4904293;28;20238;-74
2022/12/02 01:15:02;;;;;;;36.33;18.43;;;;;;;;;;4941804;28;20825;-74
2022/12/02 01:17:27;;;;;;;36.50;17.93;;;;;;;;;;4936257;28;20228;-74
2022/12/02 01:19:53;;;;;;;28.80;17.10;;;;;;;;;;4947395;28;20685;-74
2022/12/02 01:22:19;;;;;;;27.70;16.37;;;;;;;;;;4922913;28;20232;-74
2022/12/02 01:24:47;;;;;;;27.47;16.03;;;;;;;;;;4928166;29;20223;-74
2022/12/02 01:27:12;;;;;;;27.20;16.30;;;;;;;;;;4954289;28;20226;-73
2022/12/02 01:29:40;;;;;;;32.37;16.57;;;;;;;;;;4938255;28;20235;-73
2022/12/02 01:32:09;;;;;;;34.10;17.37;;;;;;;;;;4922349;28;20282;-74
2022/12/02 01:34:34;;;;;;;31.10;16.97;;;;;;;;;;4922733;29;20223;-74
2022/12/02 01:37:02;;;;;;;37.00;17.33;;;;;;;;;;4923113;28;20305;-74
2022/12/02 01:39:28;;;;;;;32.67;17.17;;;;;;;;;;4937933;28;20698;-74
2022/12/02 01:41:53;;;;;;;36.60;19.23;;;;;;;;;;4928283;28;20254;-73
2022/12/02 01:44:23;;;;;;;35.13;18.50;;;;;;;;;;4917719;28;20230;-72
2022/12/02 01:46:51;;;;;;;35.43;17.93;;;;;;;;;;4945178;28;20237;-74
2022/12/02 01:49:18;;;;;;;32.10;18.03;;;;;;;;;;4942285;28;20615;-74
2022/12/02 01:51:43;;;;;;;33.00;18.80;;;;;;;;;;4939161;28;20239;-73
2022/12/02 01:54:11;;;;;;;31.60;18.53;;;;;;;;;;4925729;28;20223;-73
2022/12/02 01:56:36;;;;;;;31.63;18.33;;;;;;;;;;4927473;29;20223;-75
2022/12/02 01:59:02;;;;;;;30.77;18.07;;;;;;;;;;4924182;29;20334;-74
2022/12/02 02:01:31;;;;;;;30.20;18.33;;;;;;;;;;4930097;29;21071;-74
2022/12/02 02:03:59;;;;;;;30.10;18.03;;;;;;;;;;4913333;28;20227;-73
2022/12/02 02:06:25;;;;;;;34.50;18.07;;;;;;;;;;4930066;28;20234;-74
2022/12/02 02:08:53;;;;;;;30.07;17.23;;;;;;;;;;4910244;29;20235;-74
2022/12/02 02:11:19;;;;;;;23.83;16.53;;;;;;;;;;4925665;28;20310;-74
2022/12/02 02:13:47;;;;;;;29.23;17.73;;;;;;;;;;4925673;29;20345;-73
2022/12/02 02:16:18;;;;;;;28.53;17.33;;;;;;;;;;4935214;28;20263;-73
2022/12/02 02:18:46;;;;;;;27.87;16.17;;;;;;;;;;4938940;29;20576;-74
2022/12/02 02:21:21;;;;;;;31.07;17.00;;;;;;;;;;4943439;28;20258;-74
2022/12/02 02:23:49;;;;;;;29.20;17.23;;;;;;;;;;4920418;29;20238;-74
2022/12/02 02:26:15;;;;;;;30.73;18.37;;;;;;;;;;4922863;28;20306;-74
2022/12/02 02:28:43;;;;;;;27.67;17.53;;;;;;;;;;4923314;29;20239;-74
2022/12/02 02:31:09;;;;;;;29.10;16.70;;;;;;;;;;4929722;28;20714;-74
2022/12/02 02:33:39;;;;;;;29.27;17.47;;;;;;;;;;4925209;28;20227;-74
2022/12/02 02:36:05;;;;;;;28.83;18.03;;;;;;;;;;4908203;28;20239;-74
2022/12/02 02:38:31;;;;;;;29.93;16.63;;;;;;;;;;4899893;29;20241;-74
2022/12/02 02:40:58;;;;;;;27.80;17.77;;;;;;;;;;4911777;29;20219;-74
2022/12/02 02:43:31;;;;;;;29.90;17.13;;;;;;;;;;4923334;28;20223;-74
2022/12/02 02:46:02;;;;;;;30.37;17.67;;;;;;;;;;4931679;28;20597;-74
2022/12/02 02:48:35;;;;;;;33.07;16.93;;;;;;;;;;4930185;29;20266;-75
2022/12/02 02:51:00;;;;;;;32.40;18.03;;;;;;;;;;4935282;29;20227;-75
2022/12/02 02:53:31;;;;;;;36.60;17.47;;;;;;;;;;4926889;29;20226;-76
2022/12/02 02:55:58;;;;;;;31.23;17.33;;;;;;;;;;4899321;29;20231;-75
2022/12/02 02:58:24;;;;;;;27.90;16.67;;;;;;;;;;4937580;28;20238;-76
2022/12/02 03:01:10;;;;;;;34.13;19.40;;;;;;;;;;4936423;28;20211;-76
2022/12/02 03:03:59;;;;;;;28.93;17.93;;;;;;;;;;4906912;29;20219;-77
2022/12/02 03:06:28;;;;;;;31.80;17.87;;;;;;;;;;4920037;29;20285;-73
2022/12/02 03:08:57;;;;;;;30.93;17.00;;;;;;;;;;4936767;28;20232;-75
2022/12/02 03:11:27;;;;;;;34.00;18.07;;;;;;;;;;4940539;28;21034;-75
2022/12/02 03:13:55;;;;;;;27.53;16.57;;;;;;;;;;4903517;29;20227;-75
2022/12/02 03:16:21;;;;;;;33.50;17.60;;;;;;;;;;4938206;28;20223;-74
2022/12/02 03:18:49;;;;;;;27.10;16.67;;;;;;;;;;4939913;28;20321;-73
2022/12/02 03:21:15;;;;;;;28.13;16.27;;;;;;;;;;4920514;28;20231;-75
2022/12/02 03:23:40;;;;;;;31.13;16.83;;;;;;;;;;4923073;29;20227;-74
2022/12/02 03:26:06;;;;;;;32.53;18.77;;;;;;;;;;4921117;28;20223;-75
2022/12/02 03:28:34;;;;;;;26.90;17.63;;;;;;;;;;4923368;29;21009;-75
2022/12/02 03:30:59;;;;;;;31.60;17.20;;;;;;;;;;4901986;29;20263;-74
2022/12/02 03:33:25;;;;;;;31.33;18.17;;;;;;;;;;4922848;28;20243;-75
2022/12/02 03:35:50;;;;;;;34.80;18.40;;;;;;;;;;4922917;29;20230;-75
2022/12/02 03:38:18;;;;;;;29.93;17.90;;;;;;;;;;4938777;28;20266;-74
2022/12/02 03:40:44;;;;;;;34.20;18.67;;;;;;;;;;4938530;28;20244;-75
2022/12/02 03:43:15;;;;;;;30.60;18.37;;;;;;;;;;4951253;28;20565;-75
2022/12/02 03:45:41;;;;;;;26.60;17.23;;;;;;;;;;4921529;29;20232;-74
2022/12/02 03:48:11;;;;;;;37.77;19.20;;;;;;;;;;4932905;28;20221;-75
2022/12/02 03:50:37;;;;;;;28.37;17.37;;;;;;;;;;4940296;28;20315;-74
2022/12/02 03:53:05;;;;;;;28.43;17.30;;;;;;;;;;4913102;28;20666;-76
2022/12/02 03:58:09;;;;;;;30.63;18.83;;;;;;;;;;4936604;28;20314;-88
2022/12/02 04:00:35;;;;;;;35.60;19.27;;;;;;;;;;4924141;29;20824;-87
2022/12/02 04:03:00;;;;;;;36.20;20.33;;;;;;;;;;4921719;29;20669;-87
2022/12/02 04:05:29;;;;;;;32.13;21.07;;;;;;;;;;4951222;28;20230;-87
2022/12/02 04:07:54;;;;;;;34.60;21.87;;;;;;;;;;4932351;29;20219;-86
2022/12/02 04:10:20;;;;;;;36.03;22.77;;;;;;;;;;4951330;28;20770;-88
2022/12/02 04:12:50;;;;;;;32.53;21.70;;;;;;;;;;4920376;29;20295;-87
2022/12/02 04:15:18;;;;;;;37.80;22.27;;;;;;;;;;4917550;28;20223;-87
2022/12/02 04:17:46;;;;;;;34.37;21.17;;;;;;;;;;4942258;28;20684;-86
2022/12/02 04:20:12;;;;;;;37.33;24.17;;;;;;;;;;4916837;28;20242;-85
2022/12/02 04:22:47;;;;;;;46.33;24.63;;;;;;;;;;4954721;28;20223;-85
2022/12/02 04:25:15;;;;;;;39.97;24.93;;;;;;;;;;4947366;28;20321;-86
2022/12/02 04:27:41;;;;;;;36.90;24.33;;;;;;;;;;4935623;28;20699;-86
2022/12/02 04:30:08;;;;;;;46.27;26.50;;;;;;;;;;4942937;28;20223;-88
2022/12/02 04:32:34;;;;;;;40.17;26.77;;;;;;;;;;4944372;29;20229;-86
2022/12/02 04:35:00;;;;;;;43.27;27.23;;;;;;;;;;4957881;28;20711;-87
2022/12/02 04:37:25;;;;;;;42.80;27.87;;;;;;;;;;4957450;28;20227;-87
2022/12/02 04:39:51;;;;;;;48.83;28.23;;;;;;;;;;4932988;28;20728;-85
2022/12/02 04:42:21;;;;;;;49.07;28.33;;;;;;;;;;4917372;28;20263;-86
2022/12/02 04:44:48;;;;;;;42.30;28.37;;;;;;;;;;4927873;28;20250;-87
2022/12/02 04:47:21;;;;;;;54.17;28.73;;;;;;;;;;4965390;28;20746;-87
2022/12/02 04:49:46;;;;;;;44.23;29.53;;;;;;;;;;4949193;28;20333;-85
2022/12/02 04:52:14;;;;;;;42.23;28.27;;;;;;;;;;4936246;28;20222;-86
2022/12/02 04:54:42;;;;;;;44.40;29.57;;;;;;;;;;4962844;28;20487;-87
2022/12/02 04:57:12;;;;;;;48.73;30.27;;;;;;;;;;4928147;28;20278;-86
2022/12/02 04:59:40;;;;;;;43.93;29.30;;;;;;;;;;4907824;29;20251;-86
2022/12/02 05:02:06;;;;;;;44.03;27.60;;;;;;;;;;4950629;28;20227;-84
2022/12/02 05:04:31;;;;;;;43.17;28.20;;;;;;;;;;4955235;28;20254;-87
2022/12/02 05:07:00;;;;;;;45.47;29.30;;;;;;;;;;4959443;28;20270;-87
2022/12/02 05:09:28;;;;;;;47.13;31.13;;;;;;;;;;4922281;28;20223;-86
2022/12/02 05:11:56;;;;;;;47.27;30.73;;;;;;;;;;4950684;28;20591;-86
2022/12/02 05:14:23;;;;;;;47.47;30.80;;;;;;;;;;4949483;28;20344;-85
2022/12/02 05:16:49;;;;;;;44.70;30.33;;;;;;;;;;4963625;28;20235;-87
2022/12/02 05:19:15;;;;;;;51.03;31.13;;;;;;;;;;4981389;28;20219;-84
2022/12/02 05:21:45;;;;;;;44.67;30.77;;;;;;;;;;4956276;28;20251;-87
2022/12/02 05:24:11;;;;;;;47.37;29.80;;;;;;;;;;4966469;28;20298;-89
2022/12/02 05:26:39;;;;;;;50.63;32.33;;;;;;;;;;4940556;29;20235;-87
2022/12/02 05:29:05;;;;;;;47.10;28.97;;;;;;;;;;4950058;28;20234;-86
2022/12/02 05:31:30;;;;;;;43.70;30.00;;;;;;;;;;4950994;28;20619;-88
2022/12/02 05:34:01;;;;;;;49.97;30.97;;;;;;;;;;4927992;28;20250;-87
2022/12/02 05:36:27;;;;;;;45.93;29.87;;;;;;;;;;4927527;28;20226;-82
2022/12/02 05:38:55;;;;;;;43.73;29.93;;;;;;;;;;4933695;28;20703;-88
2022/12/02 05:41:20;;;;;;;42.23;29.23;;;;;;;;;;4938558;29;20229;-86
2022/12/02 05:43:46;;;;;;;48.00;31.30;;;;;;;;;;4950515;28;20219;-85
2022/12/02 05:46:15;;;;;;;50.07;33.00;;;;;;;;;;4930762;28;20223;-86
2022/12/02 05:48:42;;;;;;;42.30;30.70;;;;;;;;;;4951110;29;20219;-86
2022/12/02 05:51:15;;;;;;;43.93;30.17;;;;;;;;;;4946507;28;20237;-85
2022/12/02 05:53:44;;;;;;;42.33;29.90;;;;;;;;;;4926226;28;20738;-86
2022/12/02 05:56:28;;;;;;;43.53;30.60;;;;;;;;;;4954143;28;20913;-85
2022/12/02 05:58:59;;;;;;;44.27;28.33;;;;;;;;;;4918757;29;20314;-87
2022/12/02 06:01:29;;;;;;;40.50;29.37;;;;;;;;;;4953904;28;20230;-86
2022/12/02 06:03:55;;;;;;;44.40;29.73;;;;;;;;;;4974064;28;20692;-87
2022/12/02 06:06:33;;;;;;;41.10;28.30;;;;;;;;;;4965729;28;20233;-87
2022/12/02 06:09:16;;;;;;;44.37;31.70;;;;;;;;;;4957591;28;20218;-85
2022/12/02 06:11:50;;;;;;;42.67;29.37;;;;;;;;;;4925382;29;20243;-86
2022/12/02 06:14:18;;;;;;;43.53;30.17;;;;;;;;;;4941085;23;20235;-75
2022/12/02 06:16:57;;;;;;;43.37;30.90;;;;;;;;;;4950789;28;20227;-74
2022/12/02 06:19:27;;;;;;;42.47;30.87;;;;;;;;;;4962641;28;20294;-74
2022/12/02 06:21:58;;;;;;;42.80;29.50;;;;;;;;;;4921303;29;20231;-74
2022/12/02 06:24:31;;;;;;;46.43;29.77;;;;;;;;;;4975429;23;20246;-86
2022/12/02 06:26:58;;;;;;;42.77;29.53;;;;;;;;;;4925388;28;20286;-87
2022/12/02 06:29:27;;;;;;;37.97;28.13;;;;;;;;;;4934475;28;20223;-88
2022/12/02 06:31:52;;;;;;;39.50;28.70;;;;;;;;;;4956714;28;20233;-86
2022/12/02 06:34:21;;;;;;;39.63;29.23;;;;;;;;;;4956264;28;20292;-87
2022/12/02 06:36:46;;;;;;;40.50;30.20;;;;;;;;;;4971701;28;20265;-87
2022/12/02 06:39:17;;;;;;;45.00;29.83;;;;;;;;;;4953980;28;20230;-87
2022/12/02 06:41:43;;;;;;;43.43;31.80;;;;;;;;;;4969833;28;20226;-87
2022/12/02 06:46:57;;;;;;;40.70;28.40;;;;;;;;;;4943704;28;20237;-86
2022/12/02 06:49:24;;;;;;;39.00;30.47;;;;;;;;;;4950438;28;20226;-85
2022/12/02 06:52:02;;;;;;;41.97;29.53;;;;;;;;;;4934684;28;20227;-86
2022/12/02 06:54:29;;;;;;;39.03;29.27;;;;;;;;;;4959239;28;20230;-87
2022/12/02 06:56:55;;;;;;;36.93;29.80;;;;;;;;;;4955732;28;20331;-88
2022/12/02 06:59:25;;;;;;;45.07;32.13;;;;;;;;;;4955473;28;20321;-86
2022/12/02 07:01:58;;;;;;;39.10;30.33;;;;;;;;;;4955604;28;20224;-87
2022/12/02 07:04:32;;;;;;;42.70;29.53;;;;;;;;;;4943045;28;20250;-86
2022/12/02 07:07:25;;;;;;;37.50;29.07;;;;;;;;;;4988261;28;20226;-88
2022/12/02 07:09:54;;;;;;;39.20;30.07;;;;;;;;;;4946662;28;20234;-87
2022/12/02 07:12:22;;;;;;;42.70;30.13;;;;;;;;;;4940117;28;20223;-87
2022/12/02 07:14:52;;;;;;;38.33;29.63;;;;;;;;;;4941560;28;20309;-87
2022/12/02 07:17:30;;;;;;;37.87;29.50;;;;;;;;;;4936448;28;20297;-87
2022/12/02 07:20:21;;;;;;;38.27;29.87;;;;;;;;;;4973649;28;20248;-88
2022/12/02 07:22:54;;;;;;;41.03;29.90;;;;;;;;;;4970013;28;20253;-87
2022/12/02 07:25:26;;;;;;;41.90;31.80;;;;;;;;;;4963952;28;20235;-86
2022/12/02 07:27:54;;;;;;;45.33;31.17;;;;;;;;;;4980810;28;20261;-87
2022/12/02 07:30:35;;;;;;;47.07;31.70;;;;;;;;;;4951861;28;20225;-87
2022/12/02 07:33:05;;;;;;;41.10;30.90;;;;;;;;;;4934796;28;20321;-83
2022/12/02 07:35:31;;;;;;;38.03;29.13;;;;;;;;;;4952137;28;20236;-86
2022/12/02 07:37:59;;;;;;;42.67;30.73;;;;;;;;;;4956335;28;20223;-86
2022/12/02 07:40:30;;;;;;;39.33;30.63;;;;;;;;;;4942194;28;20645;-86
2022/12/02 07:42:58;;;;;;;43.90;30.33;;;;;;;;;;4942863;29;20237;-87
2022/12/02 07:45:23;;;;;;;45.17;31.77;;;;;;;;;;4968108;28;20226;-85
2022/12/02 07:47:52;;;;;;;39.40;30.20;;;;;;;;;;4956371;28;20226;-86
2022/12/02 07:50:20;;;;;;;42.57;31.23;;;;;;;;;;4932843;28;20222;-86
2022/12/02 07:52:47;;;;;;;39.47;29.97;;;;;;;;;;4954373;28;20223;-87
2022/12/02 07:55:13;;;;;;;39.30;29.47;;;;;;;;;;4938448;28;20241;-87
2022/12/02 07:57:39;;;;;;;35.60;29.63;;;;;;;;;;4957117;28;20317;-88
2022/12/02 08:00:07;;;;;;;36.83;29.30;;;;;;;;;;4952034;28;20277;-86
2022/12/02 08:02:41;;;;;;;41.27;31.17;;;;;;;;;;4989718;28;20230;-87
2022/12/02 08:05:07;;;;;;;39.90;30.27;;;;;;;;;;4974391;28;20238;-87
2022/12/02 08:07:33;;;;;;;40.67;30.80;;;;;;;;;;4968951;28;20221;-83
2022/12/02 08:10:03;;;;;;;38.70;28.30;;;;;;;;;;4947337;28;20238;-86
2022/12/02 08:12:34;;;;;;;38.83;29.90;;;;;;;;;;4957055;29;20601;-86
2022/12/02 08:14:59;;;;;;;35.20;27.67;;;;;;;;;;4998709;28;20245;-87
2022/12/02 08:17:42;;;;;;;45.93;31.13;;;;;;;;;;4968352;28;20775;-85
2022/12/02 08:20:09;;;;;;;40.10;29.73;;;;;;;;;;4949670;28;20226;-87
2022/12/02 08:22:37;;;;;;;37.80;27.30;;;;;;;;;;4954877;29;20214;-87
2022/12/02 08:25:06;;;;;;;35.43;27.63;;;;;;;;;;4939430;28;20242;-85
2022/12/02 08:27:34;;;;;;;37.03;29.03;;;;;;;;;;4940261;29;20301;-88
2022/12/02 08:30:03;;;;;;;40.13;29.60;;;;;;;;;;4951246;28;20230;-85
2022/12/02 08:32:31;;;;;;;44.07;29.27;;;;;;;;;;4938848;28;20305;-83
2022/12/02 08:34:56;;;;;;;38.90;28.80;;;;;;;;;;4953786;28;20258;-87
2022/12/02 08:37:22;;;;;;;33.83;26.87;;;;;;;;;;4946205;28;20228;-87
2022/12/02 08:39:47;;;;;;;38.27;27.37;;;;;;;;;;4980004;28;20289;-87
2022/12/02 08:42:13;;;;;;;36.17;27.80;;;;;;;;;;4944749;28;20226;-83
2022/12/02 08:44:41;;;;;;;34.30;26.90;;;;;;;;;;4945380;28;20253;-85
2022/12/02 08:47:06;;;;;;;33.50;26.50;;;;;;;;;;4986277;28;20237;-87
2022/12/02 08:49:32;;;;;;;35.63;27.03;;;;;;;;;;4967522;28;20710;-89
2022/12/02 08:52:03;;;;;;;38.37;28.10;;;;;;;;;;4956148;28;20229;-84
2022/12/02 08:54:28;;;;;;;34.77;26.90;;;;;;;;;;4956472;28;20226;-86
2022/12/02 08:56:55;;;;;;;36.73;28.10;;;;;;;;;;4945265;28;20646;-87
2022/12/02 08:59:23;;;;;;;39.10;27.53;;;;;;;;;;4944409;28;21040;-85
2022/12/02 09:01:48;;;;;;;35.33;28.50;;;;;;;;;;4975421;28;20218;-86
2022/12/02 09:04:17;;;;;;;36.07;28.40;;;;;;;;;;4936348;28;20226;-86
2022/12/02 09:06:45;;;;;;;35.53;27.07;;;;;;;;;;4943054;28;20230;-87
2022/12/02 09:09:13;;;;;;;37.30;28.30;;;;;;;;;;4954226;28;20218;-85
2022/12/02 09:11:41;;;;;;;38.50;28.27;;;;;;;;;;4972600;28;20238;-86
2022/12/02 09:14:06;;;;;;;38.20;26.70;;;;;;;;;;4951824;28;20268;-84
2022/12/02 09:16:34;;;;;;;35.00;27.63;;;;;;;;;;4969465;28;20260;-84
2022/12/02 09:19:05;;;;;;;39.63;28.63;;;;;;;;;;4949283;28;20256;-83
2022/12/02 09:21:33;;;;;;;36.30;28.73;;;;;;;;;;4962225;28;20229;-87
2022/12/02 09:24:05;;;;;;;36.10;29.37;;;;;;;;;;4961132;28;20255;-88
2022/12/02 09:26:33;;;;;;;38.50;30.13;;;;;;;;;;4959242;28;20221;-84
2022/12/02 09:29:04;;;;;;;38.47;27.83;;;;;;;;;;4941136;29;20237;-88
2022/12/02 09:31:32;;;;;;;37.80;28.13;;;;;;;;;;4957160;28;20226;-86
2022/12/02 09:33:57;;;;;;;37.50;27.73;;;;;;;;;;4986754;28;20954;-85
2022/12/02 09:36:26;;;;;;;33.83;26.17;;;;;;;;;;4975493;28;20714;-86
2022/12/02 09:38:56;;;;;;;40.37;28.73;;;;;;;;;;4957395;28;20226;-86
2022/12/02 09:41:22;;;;;;;40.97;28.93;;;;;;;;;;4949902;28;20820;-85
2022/12/02 09:43:48;;;;;;;40.87;28.47;;;;;;;;;;4960538;28;20229;-85
2022/12/02 09:46:13;;;;;;;38.00;26.17;;;;;;;;;;4959089;28;20234;-86
2022/12/02 09:48:41;;;;;;;38.80;28.73;;;;;;;;;;4960962;28;20226;-88
2022/12/02 09:51:08;;;;;;;35.73;28.37;;;;;;;;;;4970115;28;20689;-87
2022/12/02 09:53:37;;;;;;;36.60;29.37;;;;;;;;;;4958349;29;20242;-87
2022/12/02 09:56:03;;;;;;;35.97;27.90;;;;;;;;;;4965551;28;20238;-86
2022/12/02 09:58:28;;;;;;;38.97;29.73;;;;;;;;;;4945753;28;20418;-87
2022/12/02 10:00:54;;;;;;;36.87;29.57;;;;;;;;;;4944583;28;20244;-85
2022/12/02 10:03:22;;;;;;;40.30;28.03;;;;;;;;;;4960529;28;20309;-87
2022/12/02 10:05:53;;;;;;;43.67;29.80;;;;;;;;;;4941962;28;20230;-85
2022/12/02 10:08:25;;;;;;;41.13;29.50;;;;;;;;;;4958280;28;20229;-83
2022/12/02 10:10:52;;;;;;;41.03;29.47;;;;;;;;;;4973750;28;20233;-86
2022/12/02 10:13:18;;;;;;;36.73;28.80;;;;;;;;;;4959628;28;20229;-86
2022/12/02 10:15:46;;;;;;;39.33;29.63;;;;;;;;;;4969434;28;20368;-86
2022/12/02 10:18:21;;;;;;;38.30;28.33;;;;;;;;;;4956454;28;20214;-87
2022/12/02 10:20:49;;;;;;;39.53;27.17;;;;;;;;;;4966043;28;20229;-86
2022/12/02 10:23:19;;;;;;;39.33;29.03;;;;;;;;;;4944030;28;20220;-86
2022/12/02 10:25:46;;;;;;;39.07;29.03;;;;;;;;;;4941358;28;20222;-84
2022/12/02 10:28:28;;;;;;;39.43;27.50;;;;;;;;;;4958281;28;20226;-86
2022/12/02 10:31:21;;;;;;;40.30;28.60;;;;;;;;;;4943772;28;20226;-87
2022/12/02 10:34:05;;;;;;;33.97;26.10;;;;;;;;;;4967664;28;20330;-85
2022/12/02 10:36:38;;;;;;;33.40;26.90;;;;;;;;;;4949610;28;20238;-86
2022/12/02 10:39:32;;;;;;;40.20;26.77;;;;;;;;;;4958083;28;20225;-84
2022/12/02 10:42:03;;;;;;;36.67;26.77;;;;;;;;;;4978042;28;20229;-84
2022/12/02 10:44:37;;;;;;;39.47;27.60;;;;;;;;;;4973169;28;20906;-87
2022/12/02 10:47:17;;;;;;;42.77;27.87;;;;;;;;;;4965004;28;20226;-85
2022/12/02 10:49:50;;;;;;;40.57;27.17;;;;;;;;;;4933249;28;20222;-87
2022/12/02 10:52:21;;;;;;;34.60;25.93;;;;;;;;;;4959450;28;20225;-86
2022/12/02 10:54:49;;;;;;;43.10;26.60;;;;;;;;;;4976289;28;20226;-88
2022/12/02 10:57:22;;;;;;;35.43;27.23;;;;;;;;;;4989075;28;20293;-90
2022/12/02 10:59:47;;;;;;;36.57;27.10;;;;;;;;;;4969125;28;20289;-86
2022/12/02 11:02:28;;;;;;;36.57;27.60;;;;;;;;;;4955009;28;20226;-84
2022/12/02 11:04:53;;;;;;;33.20;26.17;;;;;;;;;;4972313;28;20288;-87
2022/12/02 11:07:24;;;;;;;33.03;27.00;;;;;;;;;;4956593;28;20223;-87
2022/12/02 11:09:53;;;;;;;33.50;26.73;;;;;;;;;;4941138;28;20227;-87
2022/12/02 11:12:33;;;;;;;33.93;25.07;;;;;;;;;;4937247;28;20238;-86
2022/12/02 11:15:39;;;;;;;36.60;27.50;;;;;;;;;;4959664;28;20244;-85
2022/12/02 11:18:06;;;;;;;31.77;25.00;;;;;;;;;;4968685;28;20226;-86
2022/12/02 11:20:46;;;;;;;31.40;25.67;;;;;;;;;;4957149;28;20225;-85
2022/12/02 11:23:20;;;;;;;32.03;23.90;;;;;;;;;;4954181;28;20230;-85
2022/12/02 11:26:00;;;;;;;29.57;23.40;;;;;;;;;;4989537;28;20307;-86
2022/12/02 11:28:28;;;;;;;30.73;23.23;;;;;;;;;;4946473;28;20237;-85
2022/12/02 11:31:09;;;;;;;27.87;21.07;;;;;;;;;;4978781;28;20233;-87
2022/12/02 11:34:00;;;;;;;27.63;21.53;;;;;;;;;;4984135;23;20229;-72
2022/12/02 11:36:30;;;;;;;26.83;21.73;;;;;;;;;;4955390;28;20250;-73
2022/12/02 11:38:56;;;;;;;30.77;23.73;;;;;;;;;;4919634;29;20784;-73
2022/12/02 11:41:22;;;;;;;31.83;23.73;;;;;;;;;;4907360;29;20250;-74
2022/12/02 11:43:47;;;;;;;28.27;23.10;;;;;;;;;;4925160;29;20657;-74
2022/12/02 11:46:14;;;;;;;28.93;23.00;;;;;;;;;;4921006;29;20215;-74
2022/12/02 11:48:53;;;;;;;27.47;23.93;;;;;;;;;;4874394;29;20227;-74
2022/12/02 11:51:34;;;;;;;26.97;22.23;;;;;;;;;;4899616;29;20228;-74
2022/12/02 11:54:13;;;;;;;25.03;19.40;;;;;;;;;;4932961;29;20227;-74
2022/12/02 11:56:39;;;;;;;26.30;21.53;;;;;;;;;;4888905;29;20232;-73
2022/12/02 11:59:39;;;;;;;28.27;21.43;;;;;;;;;;4876355;29;20238;-74
2022/12/02 12:02:10;;;;;;;27.20;21.70;;;;;;;;;;4885348;29;20290;-75
2022/12/02 12:04:35;;;;;;;26.73;21.53;;;;;;;;;;4906321;29;20235;-74
2022/12/02 12:07:03;;;;;;;24.60;20.53;;;;;;;;;;4906348;29;20234;-74
2022/12/02 12:09:33;;;;;;;23.20;20.67;;;;;;;;;;4874050;29;20716;-74
2022/12/02 12:12:12;;;;;;;25.40;21.40;;;;;;;;;;4876269;29;20247;-73
2022/12/02 12:14:57;;;;;;;25.07;22.30;;;;;;;;;;4906449;29;20251;-73
2022/12/02 12:17:39;;;;;;;26.87;20.77;;;;;;;;;;4888359;29;20235;-74
2022/12/02 12:20:16;;;;;;;25.33;20.20;;;;;;;;;;4921488;29;20905;-74
2022/12/02 12:22:48;;;;;;;27.13;20.97;;;;;;;;;;4891234;29;20231;-74
2022/12/02 12:25:38;;;;;;;27.50;20.73;;;;;;;;;;4903087;29;20219;-74
2022/12/02 12:28:24;;;;;;;25.93;20.33;;;;;;;;;;4902379;29;20234;-72
2022/12/02 12:30:53;;;;;;;27.93;20.30;;;;;;;;;;4902735;29;20322;-73
2022/12/02 12:33:19;;;;;;;22.70;19.53;;;;;;;;;;4885516;29;20318;-74
2022/12/02 12:35:44;;;;;;;24.20;19.13;;;;;;;;;;4871768;29;20878;-73
2022/12/02 12:38:10;;;;;;;23.93;19.97;;;;;;;;;;4876957;29;20732;-74
2022/12/02 12:40:40;;;;;;;21.93;18.93;;;;;;;;;;4885349;29;20234;-72
2022/12/02 12:43:08;;;;;;;24.60;20.10;;;;;;;;;;4884098;29;20219;-74
2022/12/02 12:45:36;;;;;;;24.60;19.60;;;;;;;;;;4900128;29;20242;-74
2022/12/02 12:48:01;;;;;;;21.43;17.63;;;;;;;;;;4900978;29;20888;-73
2022/12/02 12:50:30;;;;;;;24.17;18.37;;;;;;;;;;4899603;29;20238;-73
2022/12/02 12:52:56;;;;;;;21.67;17.67;;;;;;;;;;4884056;29;20602;-73
2022/12/02 12:55:24;;;;;;;21.87;17.20;;;;;;;;;;4863281;29;20227;-73
2022/12/02 12:57:51;;;;;;;22.63;17.17;;;;;;;;;;4865434;29;20239;-74
2022/12/02 13:00:17;;;;;;;22.37;18.50;;;;;;;;;;4884332;29;20241;-74
2022/12/02 13:02:43;;;;;;;22.37;18.17;;;;;;;;;;4897546;29;20227;-74
2022/12/02 13:05:09;;;;;;;25.07;17.57;;;;;;;;;;4865440;29;20345;-73
2022/12/02 13:07:39;;;;;;;23.70;18.23;;;;;;;;;;4897569;29;20799;-74
2022/12/02 13:10:10;;;;;;;24.80;18.47;;;;;;;;;;4867567;29;20294;-74
2022/12/02 13:12:38;;;;;;;23.07;17.60;;;;;;;;;;4897991;29;20298;-74
2022/12/02 13:15:04;;;;;;;25.03;17.27;;;;;;;;;;4896637;29;20224;-74
2022/12/02 13:17:29;;;;;;;19.30;17.23;;;;;;;;;;4867703;29;21560;-74
2022/12/02 13:19:55;;;;;;;23.00;17.23;;;;;;;;;;4867962;29;20624;-73
2022/12/02 13:22:20;;;;;;;22.03;16.97;;;;;;;;;;4883003;29;20235;-74
2022/12/02 13:24:46;;;;;;;18.37;16.40;;;;;;;;;;4900736;29;20627;-74
2022/12/02 13:27:12;;;;;;;18.90;16.03;;;;;;;;;;4885953;29;20227;-74
2022/12/02 13:29:37;;;;;;;19.07;15.37;;;;;;;;;;4901713;29;20227;-75
2022/12/02 13:32:04;;;;;;;20.27;14.97;;;;;;;;;;4887940;29;20288;-73
2022/12/02 13:34:29;;;;;;;17.83;15.33;;;;;;;;;;4887248;29;21357;-74
2022/12/02 13:36:57;;;;;;;17.33;14.87;;;;;;;;;;4907168;29;20239;-74
2022/12/02 13:39:23;;;;;;;16.87;14.90;;;;;;;;;;4892975;29;20915;-75
2022/12/02 13:41:51;;;;;;;21.37;14.20;;;;;;;;;;4899012;29;20231;-74
2022/12/02 13:44:19;;;;;;;19.03;15.03;;;;;;;;;;4908595;29;20228;-74
2022/12/02 13:46:47;;;;;;;17.00;15.20;;;;;;;;;;4897745;29;20223;-73
2022/12/02 13:49:12;;;;;;;22.70;15.83;;;;;;;;;;4923047;29;20318;-74
2022/12/02 13:51:38;;;;;;;19.23;14.77;;;;;;;;;;4909498;29;20226;-74
2022/12/02 13:54:03;;;;;;;18.80;14.63;;;;;;;;;;4878185;29;20302;-74
2022/12/02 13:56:29;;;;;;;20.93;15.27;;;;;;;;;;4891232;29;20302;-74
2022/12/02 13:58:54;;;;;;;18.60;14.67;;;;;;;;;;4899950;29;20231;-74
2022/12/02 14:01:20;;;;;;;17.73;15.80;;;;;;;;;;4870110;29;20235;-73
2022/12/02 14:03:48;;;;;;;16.73;14.93;;;;;;;;;;4855283;29;20357;-73
2022/12/02 14:06:16;;;;;;;18.23;13.93;;;;;;;;;;4890115;29;20231;-73
2022/12/02 14:08:42;;;;;;;17.37;15.47;;;;;;;;;;4885298;29;20677;-74
2022/12/02 14:11:12;;;;;;;16.80;14.97;;;;;;;;;;4888143;29;20238;-73
2022/12/02 14:13:38;;;;;;;19.37;16.37;;;;;;;;;;4873373;29;20328;-74
2022/12/02 14:16:04;;;;;;;21.73;16.10;;;;;;;;;;4874191;29;20224;-73
2022/12/02 14:18:29;;;;;;;23.90;16.83;;;;;;;;;;4890611;29;20231;-74
2022/12/02 14:20:57;;;;;;;18.53;14.83;;;;;;;;;;4921624;29;21106;-75
2022/12/02 14:23:31;;;;;;;20.33;16.73;;;;;;;;;;4874210;29;20226;-73
2022/12/02 14:25:57;;;;;;;22.73;16.83;;;;;;;;;;4875480;29;20365;-73
2022/12/02 14:28:24;;;;;;;21.47;16.87;;;;;;;;;;4891480;29;20287;-73
2022/12/02 14:30:50;;;;;;;22.37;17.10;;;;;;;;;;4903586;29;20227;-75
2022/12/02 14:33:15;;;;;;;19.00;15.27;;;;;;;;;;4883508;29;20227;-72
2022/12/02 14:35:43;;;;;;;19.77;15.43;;;;;;;;;;4899764;29;20227;-73